createdAt,value
2022-12-01T00:01:20.954Z,228.55
2022-12-01T00:03:47.773Z,586.83
2022-12-01T00:06:19.882Z,461.58
2022-12-01T00:09:09.422Z,1682.13
2022-12-01T00:11:37.752Z,556.00
2022-12-01T00:14:05.284Z,444.13
2022-12-01T00:16:32.841Z,775.88
2022-12-01T00:18:59.782Z,1026.50
2022-12-01T00:21:27.287Z,628.28
2022-12-01T00:23:58.544Z,894.20
2022-12-01T00:26:26.468Z,1073.43
2022-12-01T00:28:58.773Z,380.95
2022-12-01T00:31:26.161Z,723.10
2022-12-01T00:33:52.920Z,416.00
2022-12-01T00:36:19.425Z,353.77
2022-12-01T00:38:46.781Z,486.95
2022-12-01T00:41:13.715Z,1340.53
2022-12-01T00:43:40.463Z,725.25
2022-12-01T00:46:07.784Z,653.55
2022-12-01T00:48:34.503Z,842.17
2022-12-01T00:51:01.506Z,790.08
2022-12-01T00:53:28.012Z,577.60
2022-12-01T00:55:54.748Z,624.65
2022-12-01T00:58:21.824Z,545.35
2022-12-01T01:00:49.205Z,680.13
2022-12-01T01:03:16.149Z,628.10
2022-12-01T01:05:43.836Z,324.65
2022-12-01T01:08:15.018Z,295.02
2022-12-01T01:10:43.796Z,259.00
2022-12-01T01:13:11.619Z,274.50
2022-12-01T01:15:38.637Z,301.20
2022-12-01T01:18:05.710Z,354.45
2022-12-01T01:20:32.671Z,297.85
2022-12-01T01:23:00.352Z,350.67
2022-12-01T01:25:26.874Z,218.43
2022-12-01T01:27:53.335Z,520.38
2022-12-01T01:30:20.823Z,789.83
2022-12-01T01:32:47.430Z,395.50
2022-12-01T01:35:13.945Z,1301.55
2022-12-01T01:37:40.598Z,390.17
2022-12-01T01:40:07.649Z,271.00
2022-12-01T01:42:34.194Z,430.52
2022-12-01T01:45:00.876Z,178.98
2022-12-01T01:47:34.940Z,572.70
2022-12-01T01:50:10.727Z,263.60
2022-12-01T01:52:43.092Z,189.32
2022-12-01T01:55:10.082Z,332.48
2022-12-01T01:57:37.799Z,356.80
2022-12-01T02:00:30.321Z,188.38
2022-12-01T02:03:00.339Z,220.73
2022-12-01T02:05:34.521Z,373.77
2022-12-01T02:08:02.512Z,364.08
2022-12-01T02:11:07.559Z,470.50
2022-12-01T02:13:45.223Z,646.00
2022-12-01T02:16:39.264Z,759.65
2022-12-01T02:19:38.607Z,395.38
2022-12-01T02:22:52.177Z,521.75
2022-12-01T02:25:48.063Z,254.70
2022-12-01T02:28:40.669Z,392.75
2022-12-01T02:31:20.242Z,397.02
2022-12-01T02:33:56.239Z,204.43
2022-12-01T02:36:35.073Z,216.48
2022-12-01T02:39:06.960Z,238.20
2022-12-01T02:44:19.723Z,319.75
2022-12-01T02:46:52.766Z,649.55
2022-12-01T02:49:25.214Z,263.58
2022-12-01T02:51:57.459Z,458.98
2022-12-01T02:54:25.602Z,686.42
2022-12-01T02:56:55.895Z,320.90
2022-12-01T02:59:24.321Z,605.78
2022-12-01T03:02:02.818Z,371.50
2022-12-01T03:04:35.481Z,220.98
2022-12-01T03:07:16.112Z,285.05
2022-12-01T03:09:51.940Z,422.00
2022-12-01T03:12:36.703Z,458.98
2022-12-01T03:15:42.667Z,221.70
2022-12-01T03:18:18.051Z,212.55
2022-12-01T03:20:54.338Z,205.50
2022-12-01T03:23:25.947Z,233.88
2022-12-01T03:25:55.764Z,221.18
2022-12-01T03:28:28.983Z,197.80
2022-12-01T03:31:03.263Z,260.00
2022-12-01T03:33:40.351Z,192.15
2022-12-01T03:36:19.579Z,188.27
2022-12-01T03:38:52.122Z,198.68
2022-12-01T03:41:25.101Z,189.18
2022-12-01T03:44:08.839Z,213.20
2022-12-01T03:46:54.882Z,206.75
2022-12-01T03:49:24.871Z,185.13
2022-12-01T03:52:31.728Z,183.50
2022-12-01T03:55:18.248Z,183.55
2022-12-01T03:58:01.629Z,176.90
2022-12-01T04:00:29.182Z,183.68
2022-12-01T04:02:57.816Z,188.40
2022-12-01T04:05:25.712Z,203.57
2022-12-01T04:07:53.266Z,198.75
2022-12-01T04:10:19.909Z,187.65
2022-12-01T04:12:46.374Z,194.48
2022-12-01T04:15:14.488Z,221.50
2022-12-01T04:17:45.929Z,198.80
2022-12-01T04:20:20.096Z,225.32
2022-12-01T04:22:46.653Z,190.90
2022-12-01T04:25:13.140Z,200.60
2022-12-01T04:27:40.219Z,215.82
2022-12-01T04:30:07.990Z,208.88
2022-12-01T04:32:44.597Z,200.75
2022-12-01T04:35:12.376Z,201.32
2022-12-01T04:37:44.859Z,209.85
2022-12-01T04:40:11.879Z,205.32
2022-12-01T04:42:38.367Z,196.73
2022-12-01T04:45:05.153Z,188.43
2022-12-01T04:47:31.647Z,175.35
2022-12-01T04:49:58.172Z,179.32
2022-12-01T04:52:24.717Z,184.32
2022-12-01T04:54:51.198Z,179.07
2022-12-01T04:57:20.546Z,170.68
2022-12-01T04:59:47.133Z,183.32
2022-12-01T05:02:13.916Z,190.75
2022-12-01T05:04:41.763Z,201.10
2022-12-01T05:07:08.535Z,187.73
2022-12-01T05:09:35.120Z,233.63
2022-12-01T05:12:01.572Z,209.85
2022-12-01T05:14:31.037Z,195.95
2022-12-01T05:16:58.254Z,221.45
2022-12-01T05:19:46.435Z,208.95
2022-12-01T05:22:13.035Z,228.45
2022-12-01T05:24:39.580Z,219.77
2022-12-01T05:27:09.193Z,216.85
2022-12-01T05:29:38.431Z,210.20
2022-12-01T05:32:05.324Z,214.90
2022-12-01T05:34:31.855Z,241.95
2022-12-01T05:36:58.329Z,350.30
2022-12-01T05:39:27.963Z,282.15
2022-12-01T05:41:57.289Z,316.92
2022-12-01T05:44:23.851Z,309.45
2022-12-01T05:46:53.122Z,369.75
2022-12-01T05:49:19.580Z,263.45
2022-12-01T05:51:46.129Z,324.25
2022-12-01T05:54:12.661Z,383.63
2022-12-01T05:56:39.178Z,370.05
2022-12-01T05:59:08.900Z,412.35
2022-12-01T06:01:35.446Z,456.48
2022-12-01T06:04:02.044Z,820.28
2022-12-01T06:06:28.596Z,980.22
2022-12-01T06:08:55.156Z,430.50
2022-12-01T06:11:22.055Z,644.58
2022-12-01T06:13:48.561Z,624.78
2022-12-01T06:16:18.072Z,507.98
2022-12-01T06:18:44.803Z,625.35
2022-12-01T06:21:11.270Z,491.35
2022-12-01T06:23:38.477Z,924.47
2022-12-01T06:26:07.825Z,741.33
2022-12-01T06:28:34.724Z,888.47
2022-12-01T06:31:03.417Z,622.33
2022-12-01T06:33:31.442Z,417.17
2022-12-01T06:36:03.154Z,901.42
2022-12-01T06:38:35.165Z,712.35
2022-12-01T06:41:05.688Z,990.05
2022-12-01T06:43:32.409Z,354.33
2022-12-01T06:46:03.425Z,463.40
2022-12-01T06:48:30.953Z,912.20
2022-12-01T06:51:01.539Z,601.90
2022-12-01T06:53:28.804Z,857.08
2022-12-01T06:56:00.993Z,520.05
2022-12-01T06:58:28.011Z,603.60
2022-12-01T07:00:55.032Z,535.10
2022-12-01T07:03:24.192Z,483.58
2022-12-01T07:06:01.277Z,388.55
2022-12-01T07:08:29.350Z,710.42
2022-12-01T07:11:00.312Z,318.58
2022-12-01T07:13:32.862Z,466.00
2022-12-01T07:16:00.644Z,521.20
2022-12-01T07:18:28.685Z,650.38
2022-12-01T07:21:05.586Z,410.70
2022-12-01T07:23:32.138Z,483.98
2022-12-01T07:26:14.455Z,567.42
2022-12-01T07:28:41.772Z,348.67
2022-12-01T07:31:15.371Z,338.35
2022-12-01T07:33:42.507Z,1006.15
2022-12-01T07:36:13.827Z,1174.40
2022-12-01T07:38:40.385Z,845.25
2022-12-01T07:41:20.144Z,546.55
2022-12-01T07:43:48.043Z,618.72
2022-12-01T07:46:23.334Z,428.63
2022-12-01T07:48:51.003Z,1041.53
2022-12-01T07:51:17.806Z,928.60
2022-12-01T07:53:49.311Z,517.85
2022-12-01T07:56:19.047Z,393.48
2022-12-01T07:58:45.772Z,559.58
2022-12-01T08:01:19.446Z,370.38
2022-12-01T08:03:48.850Z,735.50
2022-12-01T08:06:16.970Z,641.65
2022-12-01T08:08:43.608Z,553.78
2022-12-01T08:11:13.585Z,696.30
2022-12-01T08:13:41.376Z,347.70
2022-12-01T08:16:10.284Z,534.95
2022-12-01T08:18:38.782Z,336.77
2022-12-01T08:21:06.745Z,466.25
2022-12-01T08:23:35.731Z,742.08
2022-12-01T08:26:06.625Z,645.67
2022-12-01T08:28:36.153Z,587.47
2022-12-01T08:31:17.828Z,343.65
2022-12-01T08:33:44.646Z,820.08
2022-12-01T08:36:11.208Z,426.73
2022-12-01T08:38:38.160Z,668.95
2022-12-01T08:41:07.919Z,590.13
2022-12-01T08:43:57.167Z,802.72
2022-12-01T08:46:28.393Z,550.13
2022-12-01T08:48:58.487Z,295.50
2022-12-01T08:51:25.929Z,443.35
2022-12-01T08:53:52.490Z,446.70
2022-12-01T08:56:34.498Z,604.58
2022-12-01T08:59:01.149Z,560.28
2022-12-01T09:01:28.229Z,415.52
2022-12-01T09:04:05.930Z,274.08
2022-12-01T09:06:37.640Z,810.28
2022-12-01T09:09:04.319Z,701.03
2022-12-01T09:11:30.912Z,360.17
2022-12-01T09:14:02.695Z,237.25
2022-12-01T09:16:31.934Z,636.15
2022-12-01T09:19:05.217Z,590.58
2022-12-01T09:21:34.352Z,377.75
2022-12-01T09:24:02.892Z,252.82
2022-12-01T09:26:30.094Z,628.67
2022-12-01T09:29:01.969Z,966.53
2022-12-01T09:34:06.484Z,327.08
2022-12-01T09:36:37.774Z,612.53
2022-12-01T09:39:09.767Z,504.50
2022-12-01T09:44:37.932Z,516.28
2022-12-01T09:47:14.433Z,647.75
2022-12-01T09:49:49.935Z,289.35
2022-12-01T09:52:19.689Z,268.95
2022-12-01T09:54:47.670Z,473.75
2022-12-01T09:57:39.470Z,852.78
2022-12-01T10:00:21.443Z,384.67
2022-12-01T10:02:56.879Z,412.38
2022-12-01T10:05:29.243Z,542.30
2022-12-01T10:08:00.640Z,245.23
2022-12-01T10:10:34.599Z,507.13
2022-12-01T10:13:01.342Z,572.53
2022-12-01T10:15:51.231Z,304.13
2022-12-01T10:18:36.271Z,583.85
2022-12-01T10:21:16.586Z,628.42
2022-12-01T10:23:58.133Z,527.35
2022-12-01T10:27:11.717Z,562.58
2022-12-01T10:29:50.218Z,264.70
2022-12-01T10:32:58.822Z,487.13
2022-12-01T10:35:29.282Z,460.08
2022-12-01T10:38:01.566Z,474.27
2022-12-01T10:40:35.234Z,839.45
2022-12-01T10:43:02.232Z,953.88
2022-12-01T10:45:34.417Z,322.33
2022-12-01T10:48:26.502Z,761.85
2022-12-01T10:50:55.393Z,721.65
2022-12-01T10:53:36.656Z,401.80
2022-12-01T10:56:12.756Z,433.30
2022-12-01T10:58:45.514Z,436.08
2022-12-01T11:01:19.667Z,368.80
2022-12-01T11:04:10.703Z,496.67
2022-12-01T11:06:37.661Z,635.03
2022-12-01T11:09:20.268Z,661.42
2022-12-01T11:12:02.616Z,295.75
2022-12-01T11:14:47.143Z,289.45
2022-12-01T11:17:24.960Z,271.45
2022-12-01T11:19:54.877Z,335.98
2022-12-01T11:22:28.688Z,279.55
2022-12-01T11:24:55.174Z,223.05
2022-12-01T11:27:34.912Z,208.77
2022-12-01T11:30:06.623Z,218.73
2022-12-01T11:32:37.828Z,232.35
2022-12-01T11:35:26.013Z,266.20
2022-12-01T11:40:51.356Z,692.63
2022-12-01T11:43:27.348Z,229.30
2022-12-01T11:45:55.939Z,220.13
2022-12-01T11:48:25.571Z,413.00
2022-12-01T11:51:07.196Z,393.73
2022-12-01T11:53:38.451Z,1059.90
2022-12-01T11:56:29.144Z,300.85
2022-12-01T11:59:17.138Z,421.70
2022-12-01T12:02:02.310Z,313.58
2022-12-01T12:05:02.708Z,433.33
2022-12-01T12:07:44.514Z,801.72
2022-12-01T12:10:53.306Z,687.42
2022-12-01T12:13:40.527Z,371.45
2022-12-01T12:16:12.985Z,326.48
2022-12-01T12:18:45.858Z,380.17
2022-12-01T12:21:12.251Z,225.82
2022-12-01T12:24:16.970Z,249.15
2022-12-01T12:26:58.626Z,225.52
2022-12-01T12:29:56.775Z,251.13
2022-12-01T12:32:42.055Z,210.82
2022-12-01T12:35:30.773Z,208.73
2022-12-01T12:38:15.384Z,215.23
2022-12-01T12:40:47.594Z,210.82
2022-12-01T12:43:36.913Z,214.02
2022-12-01T12:46:11.246Z,218.52
2022-12-01T12:49:03.917Z,222.27
2022-12-01T12:51:36.155Z,246.55
2022-12-01T12:54:21.411Z,183.93
2022-12-01T12:56:53.129Z,242.65
2022-12-01T12:59:24.562Z,198.15
2022-12-01T13:02:04.717Z,216.10
2022-12-01T13:04:37.949Z,197.95
2022-12-01T13:07:28.826Z,211.90
2022-12-01T13:10:02.788Z,207.93
2022-12-01T13:12:39.329Z,181.75
2022-12-01T13:15:13.627Z,209.25
2022-12-01T13:17:44.671Z,184.25
2022-12-01T13:20:18.332Z,196.03
2022-12-01T13:22:49.788Z,193.10
2022-12-01T13:25:24.729Z,193.73
2022-12-01T13:27:56.615Z,181.15
2022-12-01T13:33:03.205Z,182.45
2022-12-01T13:35:39.845Z,171.10
2022-12-01T13:38:20.194Z,176.68
2022-12-01T13:40:49.217Z,169.98
2022-12-01T13:43:20.150Z,185.60
2022-12-01T13:45:48.458Z,184.65
2022-12-01T13:48:51.946Z,178.52
2022-12-01T13:51:18.553Z,178.18
2022-12-01T13:54:01.418Z,177.45
2022-12-01T13:56:45.166Z,176.15
2022-12-01T13:59:50.742Z,178.38
2022-12-01T14:02:21.055Z,190.27
2022-12-01T14:04:51.026Z,183.05
2022-12-01T14:07:29.615Z,175.02
2022-12-01T14:10:06.319Z,168.18
2022-12-01T14:12:37.717Z,176.48
2022-12-01T14:15:42.684Z,178.40
2022-12-01T14:18:18.470Z,146.38
2022-12-01T14:20:49.321Z,184.60
2022-12-01T14:23:29.023Z,181.85
2022-12-01T14:26:21.578Z,162.60
2022-12-01T14:29:00.508Z,156.07
2022-12-01T14:31:33.302Z,163.13
2022-12-01T14:34:24.203Z,175.55
2022-12-01T14:37:02.425Z,173.23
2022-12-01T14:39:32.845Z,145.40
2022-12-01T14:42:46.217Z,150.18
2022-12-01T14:45:17.267Z,158.77
2022-12-01T14:47:50.978Z,146.33
2022-12-01T14:50:31.839Z,157.02
2022-12-01T14:53:15.849Z,148.65
2022-12-01T14:55:50.184Z,152.18
2022-12-01T14:58:29.156Z,143.77
2022-12-01T15:00:59.624Z,149.50
2022-12-01T15:03:32.250Z,142.02
2022-12-01T15:05:58.880Z,136.27
2022-12-01T15:08:58.356Z,130.10
2022-12-01T15:11:25.941Z,136.27
2022-12-01T15:13:56.717Z,140.20
2022-12-01T15:16:40.169Z,140.15
2022-12-01T15:19:33.343Z,129.38
2022-12-01T15:22:05.101Z,120.60
2022-12-01T15:24:33.891Z,122.80
2022-12-01T15:27:04.013Z,115.15
2022-12-01T15:29:49.517Z,121.75
2022-12-01T15:32:18.672Z,132.63
2022-12-01T15:34:49.230Z,137.07
2022-12-01T15:37:19.242Z,137.40
2022-12-01T15:39:49.506Z,139.27
2022-12-01T15:42:25.473Z,151.13
2022-12-01T15:45:01.472Z,148.43
2022-12-01T15:47:46.523Z,142.27
2022-12-01T15:50:31.368Z,131.63
2022-12-01T15:53:01.267Z,147.20
2022-12-01T15:55:33.069Z,158.68
2022-12-01T15:58:07.868Z,151.43
2022-12-01T16:00:35.122Z,143.68
2022-12-01T16:03:02.494Z,148.02
2022-12-01T16:05:32.511Z,155.32
2022-12-01T16:08:16.976Z,147.77
2022-12-01T16:10:43.529Z,163.73
2022-12-01T16:13:34.901Z,139.57
2022-12-01T16:16:19.083Z,162.30
2022-12-01T16:18:54.537Z,155.35
2022-12-01T16:21:21.718Z,150.27
2022-12-01T16:23:48.507Z,170.52
2022-12-01T16:26:18.531Z,153.13
2022-12-01T16:28:45.132Z,143.38
2022-12-01T16:31:19.365Z,151.85
2022-12-01T16:33:46.357Z,145.13
2022-12-01T16:36:15.997Z,150.52
2022-12-01T16:38:42.847Z,135.43
2022-12-01T16:41:18.270Z,156.63
2022-12-01T16:44:12.383Z,144.13
2022-12-01T16:46:36.556Z,132.03
2022-12-01T16:49:03.174Z,145.35
2022-12-01T16:51:54.190Z,140.75
2022-12-01T16:54:16.660Z,151.95
2022-12-01T16:56:43.188Z,166.52
2022-12-01T16:59:09.666Z,162.85
2022-12-01T17:01:36.151Z,152.38
2022-12-01T17:04:07.729Z,167.60
2022-12-01T17:06:38.376Z,172.95
2022-12-01T17:09:05.051Z,172.57
2022-12-01T17:11:32.202Z,173.85
2022-12-01T17:13:59.012Z,179.38
2022-12-01T17:16:25.581Z,182.88
2022-12-01T17:18:55.044Z,173.70
2022-12-01T17:21:21.568Z,211.50
2022-12-01T17:23:48.101Z,192.52
2022-12-01T17:26:17.546Z,198.45
2022-12-01T17:28:46.083Z,236.48
2022-12-01T17:31:12.932Z,213.80
2022-12-01T17:33:39.903Z,207.65
2022-12-01T17:36:10.026Z,192.32
2022-12-01T17:38:41.702Z,193.57
2022-12-01T17:41:13.845Z,179.38
2022-12-01T17:43:40.539Z,186.52
2022-12-01T17:46:09.341Z,187.77
2022-12-01T17:48:41.338Z,178.65
2022-12-01T17:53:37.092Z,176.18
2022-12-01T17:56:13.438Z,194.07
2022-12-01T17:58:40.112Z,218.27
2022-12-01T18:01:12.308Z,225.00
2022-12-01T18:03:39.742Z,241.10
2022-12-01T18:06:06.421Z,231.82
2022-12-01T18:08:36.162Z,223.45
2022-12-01T18:11:07.952Z,215.15
2022-12-01T18:13:39.115Z,214.68
2022-12-01T18:16:11.910Z,193.90
2022-12-01T18:18:38.577Z,303.80
2022-12-01T18:21:06.682Z,251.25
2022-12-01T18:23:36.484Z,309.88
2022-12-01T18:26:13.729Z,495.13
2022-12-01T18:28:42.890Z,283.55
2022-12-01T18:31:11.654Z,249.80
2022-12-01T18:33:44.283Z,263.65
2022-12-01T18:36:16.492Z,726.50
2022-12-01T18:38:43.238Z,524.13
2022-12-01T18:41:09.993Z,293.17
2022-12-01T18:43:37.178Z,292.80
2022-12-01T18:46:04.704Z,483.70
2022-12-01T18:48:31.840Z,351.05
2022-12-01T18:51:05.785Z,807.53
2022-12-01T18:53:33.285Z,428.80
2022-12-01T18:56:10.278Z,353.23
2022-12-01T18:58:39.266Z,374.65
2022-12-01T19:01:27.354Z,518.38
2022-12-01T19:03:58.510Z,501.65
2022-12-01T19:06:26.084Z,717.47
2022-12-01T19:08:53.442Z,522.40
2022-12-01T19:11:20.934Z,504.35
2022-12-01T19:13:52.565Z,371.83
2022-12-01T19:16:20.238Z,632.47
2022-12-01T19:18:47.150Z,910.03
2022-12-01T19:21:16.375Z,446.88
2022-12-01T19:23:43.934Z,461.90
2022-12-01T19:26:13.292Z,469.65
2022-12-01T19:28:42.054Z,364.35
2022-12-01T19:31:11.411Z,490.50
2022-12-01T19:33:38.196Z,662.80
2022-12-01T19:36:07.112Z,233.52
2022-12-01T19:38:33.722Z,333.20
2022-12-01T19:41:00.926Z,271.48
2022-12-01T19:43:27.527Z,196.02
2022-12-01T19:45:54.168Z,259.77
2022-12-01T19:48:20.892Z,439.98
2022-12-01T19:50:47.411Z,182.50
2022-12-01T19:53:15.059Z,229.00
2022-12-01T19:55:41.515Z,205.68
2022-12-01T19:58:08.503Z,203.70
2022-12-01T20:00:35.044Z,140.20
2022-12-01T20:03:01.673Z,157.45
2022-12-01T20:05:28.177Z,172.95
2022-12-01T20:07:54.767Z,170.98
2022-12-01T20:10:21.306Z,170.65
2022-12-01T20:12:47.953Z,162.57
2022-12-01T20:15:15.659Z,151.23
2022-12-01T20:17:43.014Z,132.27
2022-12-01T20:20:11.180Z,112.60
2022-12-01T20:22:38.122Z,118.78
2022-12-01T20:25:06.096Z,139.77
2022-12-01T20:27:32.941Z,135.02
2022-12-01T20:29:59.490Z,110.50
2022-12-01T20:32:26.013Z,117.50
2022-12-01T20:34:52.841Z,130.38
2022-12-01T20:37:19.542Z,117.75
2022-12-01T20:39:48.524Z,122.85
2022-12-01T20:42:15.110Z,132.88
2022-12-01T20:44:41.672Z,133.00
2022-12-01T20:47:08.137Z,132.73
2022-12-01T20:49:34.816Z,127.68
2022-12-01T20:52:01.324Z,113.88
2022-12-01T20:54:29.586Z,109.25
2022-12-01T20:56:57.033Z,112.22
2022-12-01T20:59:24.041Z,108.93
2022-12-01T21:01:50.818Z,100.57
2022-12-01T21:04:17.352Z,100.07
2022-12-01T21:06:43.964Z,99.13
2022-12-01T21:09:11.554Z,97.90
2022-12-01T21:12:06.729Z,96.18
2022-12-01T21:14:36.488Z,105.00
2022-12-01T21:17:14.859Z,97.00
2022-12-01T21:19:52.103Z,89.80
2022-12-01T21:22:20.125Z,93.95
2022-12-01T21:24:51.064Z,94.28
2022-12-01T21:27:20.699Z,96.38
2022-12-01T21:29:48.905Z,93.50
2022-12-01T21:32:19.091Z,95.65
2022-12-01T21:34:47.576Z,90.32
2022-12-01T21:37:23.010Z,98.70
2022-12-01T21:39:56.063Z,99.50
2022-12-01T21:42:29.959Z,99.20
2022-12-01T21:45:00.261Z,95.07
2022-12-01T21:47:38.458Z,96.28
2022-12-01T21:50:14.251Z,98.03
2022-12-01T21:52:42.659Z,100.68
2022-12-01T21:55:15.145Z,100.38
2022-12-01T21:57:44.699Z,99.38
2022-12-01T22:00:30.747Z,101.32
2022-12-01T22:03:09.224Z,92.00
2022-12-01T22:06:01.127Z,91.00
2022-12-01T22:08:35.120Z,86.18
2022-12-01T22:11:24.298Z,94.35
2022-12-01T22:14:09.029Z,98.93
2022-12-01T22:16:40.158Z,109.18
2022-12-01T22:19:33.659Z,102.22
2022-12-01T22:22:14.205Z,106.20
2022-12-01T22:24:52.299Z,106.80
2022-12-01T22:27:27.892Z,106.22
2022-12-01T22:30:00.694Z,101.97
2022-12-01T22:32:31.698Z,103.22
2022-12-01T22:35:14.369Z,104.37
2022-12-01T22:37:46.403Z,107.80
2022-12-01T22:40:39.484Z,103.75
2022-12-01T22:43:57.524Z,106.70
2022-12-01T22:46:25.912Z,111.28
2022-12-01T22:49:01.524Z,119.07
2022-12-01T22:51:42.141Z,119.75
2022-12-01T22:54:14.681Z,120.65
2022-12-01T22:57:03.585Z,124.60
2022-12-01T22:59:38.795Z,125.05
2022-12-01T23:02:24.521Z,123.90
2022-12-01T23:04:59.904Z,121.03
2022-12-01T23:07:42.084Z,122.97
2022-12-01T23:10:28.600Z,125.63
2022-12-01T23:13:05.404Z,134.05
2022-12-01T23:15:44.219Z,133.95
2022-12-01T23:18:16.192Z,136.98
2022-12-01T23:23:25.616Z,136.32
2022-12-01T23:25:52.293Z,138.02
2022-12-01T23:28:19.492Z,141.75
2022-12-01T23:30:49.257Z,127.03
2022-12-01T23:33:21.900Z,144.15
2022-12-01T23:35:51.191Z,142.60
2022-12-01T23:38:29.156Z,138.55
2022-12-01T23:41:00.989Z,136.43
2022-12-01T23:43:30.110Z,140.32
2022-12-01T23:46:10.023Z,150.55
2022-12-01T23:48:42.945Z,142.50
2022-12-01T23:51:23.519Z,141.73
2022-12-01T23:53:51.950Z,147.23
2022-12-01T23:56:24.354Z,144.63
2022-12-01T23:58:56.677Z,143.25
